Latest Coastal Weather Observations for Point Perpendicular

IDN60701

Issued at 3:22 pm EDT Monday 26 January 2015 (issued every 10 minutes, with the page automatically refreshed every 10 minutes)

About coastal observations | Map of coastal stations | Coastal observations for NSW | Marine services | Other Formats
Station Details ID: 068151 Name: POINT PERPENDICULAR AWS Lat: -35.09 Lon: 150.80 Height: 85.0 m
Data from the previous 72 hours. | See also: Recent months at Point Perpendicular
Date/Time
EDT
Temp

°C
Wind Pressure Rain
since 9am
mm
Weather Cloud Vis
km
Sea
Height
m
Swell
Dir
 
Speed
knots
Gust
knots
hPa Trend Height
m
Period
s
Dir
26/03:00pm 19.2 S 10 15 1014.4 - 0.0 - - - - - - -
26/02:30pm 19.1 SSW 9 13 1014.4 - 0.0 - - - - - - -
26/02:00pm 18.9 S 10 15 1014.5 - 0.0 - - - - - - -
26/01:30pm 18.7 S 11 17 1014.5 - 0.0 - - - - - - -
26/01:00pm 18.8 S 9 15 1014.5 - 0.0 - - - - - - -
26/12:30pm 19.5 S 9 15 1014.9 - 0.0 - - - - - - -
26/12:00pm 19.8 SSE 9 14 1014.7 - 0.0 - - - - - - -
26/11:30am 19.6 SSE 9 16 1014.7 - 0.0 - - - - - - -
26/11:00am 19.6 S 8 14 1014.5 - 0.0 - - - - - - -
26/10:30am 19.7 SSE 9 16 1014.5 - 0.0 - - - - - - -
26/10:00am 19.7 S 8 13 1014.3 - 0.0 - - - - - - -
26/09:30am 19.6 S 10 17 1014.3 - 0.0 - - - - - - -
26/09:00am 19.7 SSE 11 16 1014.1 - 0.6 - - - - - - -
26/08:30am 19.7 SSE 11 16 1013.6 - 0.6 - - - - - - -
26/08:00am 19.6 S 12 17 1013.2 - 0.6 - - - - - - -
26/07:30am 19.6 SSE 9 14 1013.3 - 0.6 - - - - - - -
26/07:00am 19.3 SSE 10 16 1013.1 - 0.6 - - - - - - -
26/06:30am 19.1 S 8 12 1012.5 - 0.6 - - - - - - -
26/06:00am 19.1 SSE 9 14 1012.6 - 0.6 - - - - - - -
26/05:30am 18.9 SSE 8 14 1012.4 - 0.6 - - - - - - -
26/05:00am 19.0 SSE 9 13 1011.9 - 0.2 - - - - - - -
26/04:30am 19.7 SSE 10 15 1011.6 - 0.0 - - - - - - -
26/04:00am 19.4 SSE 9 14 1011.4 - 0.0 - - - - - - -
26/03:30am 19.7 SSE 9 14 1011.1 - 0.0 - - - - - - -
26/03:00am 20.1 SSE 9 15 1011.1 - 0.0 - - - - - - -
26/02:30am 20.2 SSE 10 15 1010.8 - 0.0 - - - - - - -
26/02:00am 20.1 SSE 11 16 1010.8 - 0.0 - - - - - - -
26/01:30am 20.0 SSE 10 15 1010.9 - 0.0 - - - - - - -
26/01:00am 19.8 SSE 11 17 1010.8 - 0.0 - - - - - - -
26/12:30am 19.9 SSE 9 15 1010.9 - 0.0 - - - - - - -
 
Date/Time
EDT
Temp

°C
Wind Pressure Rain
since 9am
mm
Weather Cloud Vis
km
Sea
Height
m
Swell
Dir
 
Speed
knots
Gust
knots
hPa Trend Height
m
Period
s
Dir
25/11:30pm 20.4 SSE 10 19 1010.6 - 0.0 - - - - - - -
25/11:00pm 20.3 S 11 18 1010.5 - 0.0 - - - - - - -
25/10:30pm 20.7 SSE 10 15 1010.2 - 0.0 - - - - - - -
25/10:00pm 20.7 S 11 17 1009.9 - 0.0 - - - - - - -
25/09:30pm 20.5 SSE 11 16 1009.5 - 0.0 - - - - - - -
25/09:00pm 21.1 S 12 19 1009.0 - 0.0 - - - - - - -
25/08:30pm 21.2 S 14 21 1008.3 - 0.0 - - - - - - -
25/08:00pm 21.3 SSE 11 19 1007.7 - 0.0 - - - - - - -
25/07:30pm 21.7 SSE 13 18 1007.0 - 0.0 - - - - - - -
25/07:00pm 22.0 S 13 21 1006.5 - 0.0 - - - - - - -
25/06:30pm 22.4 S 15 23 1005.7 - 0.0 - - - - - - -
25/06:00pm 22.6 S 16 24 1005.0 - 0.0 - - - - - - -
25/05:30pm 22.7 S 18 28 1004.2 - 0.0 - - - - - - -
25/05:06pm 22.9 S 15 25 1003.7 - 0.0 - - - - - - -
25/05:00pm 22.8 S 16 23 1003.6 - 0.0 - - - - - - -
25/04:30pm 23.6 S 17 24 1002.1 - 0.0 - - - - - - -
25/04:19pm 24.6 SSW 14 26 1001.4 - 0.0 - - - - - - -
25/04:00pm 28.7 W 13 22 1001.6 - 0.0 - - - - - - -
25/03:30pm 32.9 W 9 14 1001.3 - 0.0 - - - - - - -
25/03:00pm 32.4 WNW 13 18 1001.3 - 0.0 - - - - - - -
25/02:30pm 32.5 W 13 19 1001.2 - 0.0 - - - - - - -
25/02:00pm 32.2 WNW 10 16 1001.1 - 0.0 - - - - - - -
25/01:30pm 31.5 WNW 12 17 1001.1 - 0.0 - - - - - - -
25/01:00pm 31.3 W 12 16 1001.4 - 0.0 - - - - - - -
25/12:30pm 30.3 W 12 17 1001.5 - 0.0 - - - - - - -
25/12:00pm 29.3 WNW 11 16 1001.5 - 0.0 - - - - - - -
25/11:30am 30.6 WNW 8 13 1001.6 - 0.0 - - - - - - -
25/11:00am 29.3 WNW 7 12 1001.6 - 0.0 - - - - - - -
25/10:30am 27.7 WNW 8 13 1001.9 - 0.0 - - - - - - -
25/10:00am 27.6 WNW 7 12 1002.1 - 0.0 - - - - - - -
25/09:30am 26.6 NW 7 12 1002.3 - 0.0 - - - - - - -
25/09:00am 25.9 WNW 7 12 1002.3 - 0.0 - - - - - - -
25/08:30am 25.7 NNW 7 9 1002.1 - 0.0 - - - - - - -
25/08:00am 24.7 NNW 6 9 1002.0 - 0.0 - - - - - - -
25/07:30am 23.9 N 7 9 1001.7 - 0.0 - - - - - - -
25/07:00am 23.0 NNW 8 11 1001.4 - 0.0 - - - - - - -
25/06:30am 22.3 NNW 7 11 1001.0 - 0.0 - - - - - - -
25/06:00am 22.1 NNW 8 11 1000.8 - 0.0 - - - - - - -
25/05:30am 21.9 NNW 6 9 1000.9 - 0.0 - - - - - - -
25/05:00am 21.9 N 6 8 1000.7 - 0.0 - - - - - - -
25/04:30am 21.3 N 5 6 1001.0 - 0.0 - - - - - - -
25/04:00am 21.2 NW 4 6 1001.4 - 0.0 - - - - - - -
25/03:30am 21.5 NW 5 7 1001.6 - 0.0 - - - - - - -
25/03:00am 21.6 NW 5 7 1002.0 - 0.0 - - - - - - -
25/02:30am 21.6 N 6 7 1002.4 - 0.0 - - - - - - -
25/02:00am 21.8 N 3 4 1002.6 - 0.0 - - - - - - -
25/01:30am 21.8 N 4 6 1002.8 - 0.0 - - - - - - -
25/01:00am 21.9 WNW 4 6 1003.4 - 0.0 - - - - - - -
25/12:30am 22.5 N 4 6 1003.7 - 0.0 - - - - - - -
25/12:00am 22.8 N 7 11 1004.2 - 0.0 - - - - - - -
 
Date/Time
EDT
Temp

°C
Wind Pressure Rain
since 9am
mm
Weather Cloud Vis
km
Sea
Height
m
Swell
Dir
 
Speed
knots
Gust
knots
hPa Trend Height
m
Period
s
Dir
24/11:30pm 22.6 NE 7 11 1004.3 - 0.0 - - - - - - -
24/11:00pm 22.3 N 4 5 1005.0 - 0.0 - - - - - - -
24/10:30pm 22.4 N 2 3 1005.4 - 0.0 - - - - - - -
24/10:00pm 22.6 NNW 3 5 1005.7 - 0.0 - - - - - - -
24/09:30pm 22.9 NNW 3 5 1005.9 - 0.0 - - - - - - -
24/09:00pm 23.5 NNW 5 7 1006.0 - 0.0 - - - - - - -
24/08:30pm 24.1 N 7 9 1005.9 - 0.0 - - - - - - -
24/08:00pm 23.9 N 9 12 1005.4 - 0.0 - - - - - - -
24/07:30pm 24.3 N 11 15 1004.9 - 0.0 - - - - - - -
24/07:00pm 24.0 N 12 17 1004.5 - 0.0 - - - - - - -
24/06:30pm 24.0 N 13 18 1004.0 - 0.0 - - - - - - -
24/06:00pm 24.3 NNE 14 19 1003.8 - 0.0 - - - - - - -
24/05:30pm 24.7 NNE 15 22 1003.7 - 0.0 - - - - - - -
24/05:00pm 25.0 NNE 17 27 1003.8 - 0.0 - - - - - - -
24/04:56pm 25.1 NNE 17 27 1003.7 - 0.0 - - - - - - -
24/04:30pm 24.9 NNE 17 24 1003.6 - 0.0 - - - - - - -
24/04:00pm 26.1 NNE 19 26 1003.1 - 0.0 - - - - - - -
24/03:30pm 25.2 NNE 18 27 1003.6 - 0.0 - - - - - - -
24/03:00pm 25.7 NNE 19 28 1004.3 - 0.0 - - - - - - -
24/02:30pm 27.9 NNE 21 29 1004.2 - 0.0 - - - - - - -
24/02:00pm 27.7 NNE 21 28 1004.8 - 0.0 - - - - - - -
24/01:33pm 27.7 NNE 16 26 1005.3 - 0.0 - - - - - - -
24/01:30pm 27.5 NNE 17 26 1005.3 - 0.0 - - - - - - -
24/01:00pm 27.5 NNE 17 25 1005.9 - 0.0 - - - - - - -
24/12:30pm 27.7 NNE 19 25 1006.3 - 0.0 - - - - - - -
24/12:00pm 27.4 NNE 14 21 1006.7 - 0.0 - - - - - - -
24/11:30am 26.8 NNE 11 17 1007.1 - 0.0 - - - - - - -
24/11:00am 26.5 NNE 10 15 1007.3 - 0.0 - - - - - - -
24/10:30am 25.3 NNE 9 15 1007.6 - 0.0 - - - - - - -
24/10:00am 24.0 NE 9 14 1007.8 - 0.0 - - - - - - -
24/09:30am 22.7 NNE 4 7 1007.7 - 0.0 - - - - - - -
24/09:00am 21.9 WNW 3 5 1007.8 - 0.0 - - - - - - -
24/08:30am 21.5 WNW 4 6 1007.8 - 0.0 - - - - - - -
24/08:00am 21.4 SSW 4 7 1007.6 - 0.0 - - - - - - -
24/07:30am 21.3 SSW 3 4 1007.5 - 0.0 - - - - - - -
24/07:00am 21.1 S 5 8 1007.1 - 0.0 - - - - - - -
24/06:30am 21.0 S 6 9 1007.1 - 0.0 - - - - - - -
24/06:00am 21.1 SSW 4 6 1007.1 - 0.0 - - - - - - -
24/05:30am 21.3 WSW 3 5 1007.1 - 0.0 - - - - - - -
24/05:00am 21.9 N 5 7 1006.8 - 0.0 - - - - - - -
24/04:30am 22.0 N 7 9 1006.5 - 0.0 - - - - - - -
24/04:00am 22.1 N 7 13 1006.6 - 0.0 - - - - - - -
24/03:30am 22.2 N 11 15 1006.5 - 0.0 - - - - - - -
24/03:00am 22.5 N 11 14 1006.3 - 0.0 - - - - - - -
24/02:30am 22.7 N 11 16 1006.2 - 0.0 - - - - - - -
24/02:00am 23.0 NNE 12 16 1006.5 - 0.0 - - - - - - -
24/01:30am 23.0 NNE 13 17 1006.7 - 0.0 - - - - - - -
24/01:00am 23.1 NNE 13 17 1006.8 - 0.0 - - - - - - -
24/12:30am 23.0 NNE 14 21 1006.9 - 0.0 - - - - - - -
24/12:00am 23.2 NNE 16 23 1006.7 - 0.0 - - - - - - -
 
Date/Time
EDT
Temp

°C
Wind Pressure Rain
since 9am
mm
Weather Cloud Vis
km
Sea
Height
m
Swell
Dir
 
Speed
knots
Gust
knots
hPa Trend Height
m
Period
s
Dir
23/11:30pm 23.4 NNE 16 23 1006.7 - 0.0 - - - - - - -
23/11:00pm 23.5 NNE 16 23 1006.7 - 0.0 - - - - - - -
23/10:30pm 23.6 NNE 16 24 1006.4 - 0.0 - - - - - - -
23/10:00pm 23.8 NNE 16 24 1006.1 - 0.0 - - - - - - -
23/09:30pm 23.9 NNE 17 24 1006.2 - 0.0 - - - - - - -
23/09:00pm 24.0 NNE 19 27 1006.1 - 0.0 - - - - - - -
23/08:30pm 24.1 NNE 16 23 1006.2 - 0.0 - - - - - - -
23/08:00pm 24.2 NNE 17 24 1006.0 - 0.0 - - - - - - -
23/07:33pm 24.2 NNE 17 27 1005.7 - 0.0 - - - - - - -
23/07:30pm 24.2 NNE 16 24 1005.8 - 0.0 - - - - - - -
23/07:11pm 24.3 NNE 18 28 1005.3 - 0.0 - - - - - - -
23/07:00pm 24.4 NNE 19 27 1005.0 - 0.0 - - - - - - -
23/06:38pm 25.6 NNE 20 31 1004.5 - 0.0 - - - - - - -
23/06:30pm 25.8 NNE 21 28 1004.5 - 0.0 - - - - - - -
23/06:00pm 26.0 NNE 23 33 1004.4 - 0.0 - - - - - - -
23/05:39pm 26.3 NNE 21 32 1004.5 - 0.0 - - - - - - -
23/05:30pm 26.4 NNE 19 27 1004.6 - 0.0 - - - - - - -
23/05:05pm 26.4 NNE 18 28 1004.8 - 0.0 - - - - - - -
23/05:00pm 26.6 NNE 18 26 1004.8 - 0.0 - - - - - - -
23/04:32pm 26.5 NNE 21 32 1004.7 - 0.0 - - - - - - -
23/04:30pm 26.3 NNE 21 29 1004.7 - 0.0 - - - - - - -
23/04:00pm 27.1 NNE 20 29 1004.9 - 0.0 - - - - - - -
23/03:30pm 27.2 NNE 21 28 1005.4 - 0.0 - - - - - - -

Other Formats:

Comma delimited format used in spreadsheet applications
http://www.bom.gov.au/fwo/IDN60701/IDN60701.95940.axf

JavaScript Object Notation format (JSON) in row-major order
http://www.bom.gov.au/fwo/IDN60701/IDN60701.95940.json